sensor_id;sensor_type;location;lat;lon;timestamp;temperature;humidity
20167;DHT22;10243;49.118;8.508;2022-11-15T00:01:43;11.40;99.90
20167;DHT22;10243;49.118;8.508;2022-11-15T00:05:03;11.30;99.90
20167;DHT22;10243;49.118;8.508;2022-11-15T00:08:29;11.40;99.90
20167;DHT22;10243;49.118;8.508;2022-11-15T00:11:51;11.40;99.90
20167;DHT22;10243;49.118;8.508;2022-11-15T00:15:11;11.40;99.90
20167;DHT22;10243;49.118;8.508;2022-11-15T00:18:32;11.30;99.90
20167;DHT22;10243;49.118;8.508;2022-11-15T00:21:53;11.30;99.90
20167;DHT22;10243;49.118;8.508;2022-11-15T00:25:15;11.30;99.90
20167;DHT22;10243;49.118;8.508;2022-11-15T00:28:35;11.30;99.90
20167;DHT22;10243;49.118;8.508;2022-11-15T00:31:56;11.30;99.90
20167;DHT22;10243;49.118;8.508;2022-11-15T00:35:16;11.40;99.90
20167;DHT22;10243;49.118;8.508;2022-11-15T00:38:39;11.20;99.90
20167;DHT22;10243;49.118;8.508;2022-11-15T00:42:01;11.30;99.90
20167;DHT22;10243;49.118;8.508;2022-11-15T00:45:21;11.40;99.90
20167;DHT22;10243;49.118;8.508;2022-11-15T00:48:42;11.50;99.90
20167;DHT22;10243;49.118;8.508;2022-11-15T00:52:03;11.50;99.90
20167;DHT22;10243;49.118;8.508;2022-11-15T00:55:23;11.40;99.90
20167;DHT22;10243;49.118;8.508;2022-11-15T00:58:45;11.30;99.90
20167;DHT22;10243;49.118;8.508;2022-11-15T01:02:06;11.30;99.90
20167;DHT22;10243;49.118;8.508;2022-11-15T01:05:26;11.40;99.90
20167;DHT22;10243;49.118;8.508;2022-11-15T01:08:47;11.50;99.90
20167;DHT22;10243;49.118;8.508;2022-11-15T01:12:08;11.30;99.90
20167;DHT22;10243;49.118;8.508;2022-11-15T01:15:29;11.40;99.90
20167;DHT22;10243;49.118;8.508;2022-11-15T01:18:50;11.40;99.90
20167;DHT22;10243;49.118;8.508;2022-11-15T01:22:11;11.50;99.90
20167;DHT22;10243;49.118;8.508;2022-11-15T01:25:31;11.60;99.90
20167;DHT22;10243;49.118;8.508;2022-11-15T01:28:52;11.60;99.90
20167;DHT22;10243;49.118;8.508;2022-11-15T01:32:14;11.50;99.90
20167;DHT22;10243;49.118;8.508;2022-11-15T01:35:38;11.50;99.90
20167;DHT22;10243;49.118;8.508;2022-11-15T01:38:59;11.40;99.90
20167;DHT22;10243;49.118;8.508;2022-11-15T01:42:20;11.40;99.90
20167;DHT22;10243;49.118;8.508;2022-11-15T01:45:40;11.50;99.90
20167;DHT22;10243;49.118;8.508;2022-11-15T01:49:09;11.70;99.90
20167;DHT22;10243;49.118;8.508;2022-11-15T01:52:33;11.70;99.90
20167;DHT22;10243;49.118;8.508;2022-11-15T01:55:54;11.80;99.90
20167;DHT22;10243;49.118;8.508;2022-11-15T01:59:15;11.80;99.90
20167;DHT22;10243;49.118;8.508;2022-11-15T02:02:36;11.80;99.90
20167;DHT22;10243;49.118;8.508;2022-11-15T02:05:58;11.80;99.90
20167;DHT22;10243;49.118;8.508;2022-11-15T02:09:19;11.90;99.90
20167;DHT22;10243;49.118;8.508;2022-11-15T02:12:41;11.90;99.90
20167;DHT22;10243;49.118;8.508;2022-11-15T02:16:07;11.80;99.90
20167;DHT22;10243;49.118;8.508;2022-11-15T02:20:08;11.50;99.90
20167;DHT22;10243;49.118;8.508;2022-11-15T02:24:06;11.60;99.90
20167;DHT22;10243;49.118;8.508;2022-11-15T02:31:32;11.70;99.90
20167;DHT22;10243;49.118;8.508;2022-11-15T02:35:01;11.80;99.90
20167;DHT22;10243;49.118;8.508;2022-11-15T02:38:31;11.90;99.90
20167;DHT22;10243;49.118;8.508;2022-11-15T02:41:55;11.80;99.90
20167;DHT22;10243;49.118;8.508;2022-11-15T02:45:20;11.70;99.90
20167;DHT22;10243;49.118;8.508;2022-11-15T02:48:43;11.40;99.90
20167;DHT22;10243;49.118;8.508;2022-11-15T02:52:04;11.60;99.90
20167;DHT22;10243;49.118;8.508;2022-11-15T02:55:27;11.60;99.90
20167;DHT22;10243;49.118;8.508;2022-11-15T03:03:24;11.80;99.90
20167;DHT22;10243;49.118;8.508;2022-11-15T03:06:54;11.80;99.90
20167;DHT22;10243;49.118;8.508;2022-11-15T03:10:19;11.70;99.90
20167;DHT22;10243;49.118;8.508;2022-11-15T03:13:47;11.80;99.90
20167;DHT22;10243;49.118;8.508;2022-11-15T03:17:14;11.80;99.90
20167;DHT22;10243;49.118;8.508;2022-11-15T03:20:37;11.90;99.90
20167;DHT22;10243;49.118;8.508;2022-11-15T03:24:02;11.80;99.90
20167;DHT22;10243;49.118;8.508;2022-11-15T03:27:28;11.80;99.90
20167;DHT22;10243;49.118;8.508;2022-11-15T03:30:51;11.90;99.90
20167;DHT22;10243;49.118;8.508;2022-11-15T03:34:19;12.00;99.90
20167;DHT22;10243;49.118;8.508;2022-11-15T03:37:43;12.00;99.90
20167;DHT22;10243;49.118;8.508;2022-11-15T03:41:09;12.00;99.90
20167;DHT22;10243;49.118;8.508;2022-11-15T03:44:39;12.00;99.90
20167;DHT22;10243;49.118;8.508;2022-11-15T03:48:02;11.90;99.90
20167;DHT22;10243;49.118;8.508;2022-11-15T03:51:25;12.00;99.90
20167;DHT22;10243;49.118;8.508;2022-11-15T03:54:50;12.10;99.90
20167;DHT22;10243;49.118;8.508;2022-11-15T03:58:12;12.20;99.90
20167;DHT22;10243;49.118;8.508;2022-11-15T04:01:33;12.20;99.90
20167;DHT22;10243;49.118;8.508;2022-11-15T04:04:53;12.20;99.90
20167;DHT22;10243;49.118;8.508;2022-11-15T04:08:14;12.20;99.90
20167;DHT22;10243;49.118;8.508;2022-11-15T04:11:34;12.30;99.90
20167;DHT22;10243;49.118;8.508;2022-11-15T04:14:57;12.30;99.90
20167;DHT22;10243;49.118;8.508;2022-11-15T04:18:30;12.30;99.90
20167;DHT22;10243;49.118;8.508;2022-11-15T04:21:50;12.30;99.90
20167;DHT22;10243;49.118;8.508;2022-11-15T04:25:28;12.30;99.90
20167;DHT22;10243;49.118;8.508;2022-11-15T04:28:49;12.20;99.90
20167;DHT22;10243;49.118;8.508;2022-11-15T04:32:29;12.10;99.90
20167;DHT22;10243;49.118;8.508;2022-11-15T04:35:49;12.10;99.90
20167;DHT22;10243;49.118;8.508;2022-11-15T04:39:24;12.10;99.90
20167;DHT22;10243;49.118;8.508;2022-11-15T04:42:44;12.20;99.90
20167;DHT22;10243;49.118;8.508;2022-11-15T04:46:05;12.20;99.90
20167;DHT22;10243;49.118;8.508;2022-11-15T04:49:26;12.30;99.90
20167;DHT22;10243;49.118;8.508;2022-11-15T04:52:51;12.30;99.90
20167;DHT22;10243;49.118;8.508;2022-11-15T04:56:11;12.30;99.90
20167;DHT22;10243;49.118;8.508;2022-11-15T04:59:32;12.50;99.90
20167;DHT22;10243;49.118;8.508;2022-11-15T05:02:52;12.50;99.90
20167;DHT22;10243;49.118;8.508;2022-11-15T05:06:32;12.50;99.90
20167;DHT22;10243;49.118;8.508;2022-11-15T05:09:52;12.50;99.90
20167;DHT22;10243;49.118;8.508;2022-11-15T05:13:13;12.30;99.90
20167;DHT22;10243;49.118;8.508;2022-11-15T05:16:33;12.20;99.90
20167;DHT22;10243;49.118;8.508;2022-11-15T05:19:54;12.30;99.90
20167;DHT22;10243;49.118;8.508;2022-11-15T05:23:16;12.40;99.90
20167;DHT22;10243;49.118;8.508;2022-11-15T05:26:36;12.40;99.90
20167;DHT22;10243;49.118;8.508;2022-11-15T05:29:57;12.50;99.90
20167;DHT22;10243;49.118;8.508;2022-11-15T05:33:17;12.40;99.90
20167;DHT22;10243;49.118;8.508;2022-11-15T05:36:40;12.40;99.90
20167;DHT22;10243;49.118;8.508;2022-11-15T05:40:03;12.40;99.90
20167;DHT22;10243;49.118;8.508;2022-11-15T05:43:24;12.40;99.90
20167;DHT22;10243;49.118;8.508;2022-11-15T05:46:45;12.40;99.90
20167;DHT22;10243;49.118;8.508;2022-11-15T05:50:06;12.40;99.90
20167;DHT22;10243;49.118;8.508;2022-11-15T05:53:27;12.40;99.90
20167;DHT22;10243;49.118;8.508;2022-11-15T05:56:49;12.40;99.90
20167;DHT22;10243;49.118;8.508;2022-11-15T06:00:11;12.30;99.90
20167;DHT22;10243;49.118;8.508;2022-11-15T06:03:32;12.30;99.90
20167;DHT22;10243;49.118;8.508;2022-11-15T06:06:52;12.40;99.90
20167;DHT22;10243;49.118;8.508;2022-11-15T06:10:13;12.40;99.90
20167;DHT22;10243;49.118;8.508;2022-11-15T06:13:35;12.40;99.90
20167;DHT22;10243;49.118;8.508;2022-11-15T06:16:55;12.20;99.90
20167;DHT22;10243;49.118;8.508;2022-11-15T06:20:16;12.40;99.90
20167;DHT22;10243;49.118;8.508;2022-11-15T06:23:36;12.30;99.90
20167;DHT22;10243;49.118;8.508;2022-11-15T06:26:57;12.30;99.90
20167;DHT22;10243;49.118;8.508;2022-11-15T06:30:19;12.30;99.90
20167;DHT22;10243;49.118;8.508;2022-11-15T06:33:40;12.30;99.90
20167;DHT22;10243;49.118;8.508;2022-11-15T06:37:00;12.30;99.90
20167;DHT22;10243;49.118;8.508;2022-11-15T06:40:21;12.10;99.90
20167;DHT22;10243;49.118;8.508;2022-11-15T06:43:42;12.20;99.90
20167;DHT22;10243;49.118;8.508;2022-11-15T06:47:03;12.30;99.90
20167;DHT22;10243;49.118;8.508;2022-11-15T06:50:24;12.20;99.90
20167;DHT22;10243;49.118;8.508;2022-11-15T06:53:45;12.10;99.90
20167;DHT22;10243;49.118;8.508;2022-11-15T06:57:05;12.20;99.90
20167;DHT22;10243;49.118;8.508;2022-11-15T07:00:26;12.20;99.90
20167;DHT22;10243;49.118;8.508;2022-11-15T07:03:48;12.40;99.90
20167;DHT22;10243;49.118;8.508;2022-11-15T07:07:09;12.40;99.90
20167;DHT22;10243;49.118;8.508;2022-11-15T07:10:29;12.40;99.90
20167;DHT22;10243;49.118;8.508;2022-11-15T07:13:50;12.30;99.90
20167;DHT22;10243;49.118;8.508;2022-11-15T07:17:12;12.30;99.90
20167;DHT22;10243;49.118;8.508;2022-11-15T07:20:34;12.40;99.90
20167;DHT22;10243;49.118;8.508;2022-11-15T07:23:54;12.50;99.90
20167;DHT22;10243;49.118;8.508;2022-11-15T07:27:15;12.60;99.90
20167;DHT22;10243;49.118;8.508;2022-11-15T07:30:35;12.60;99.90
20167;DHT22;10243;49.118;8.508;2022-11-15T07:33:56;12.70;99.90
20167;DHT22;10243;49.118;8.508;2022-11-15T07:37:18;12.70;99.90
20167;DHT22;10243;49.118;8.508;2022-11-15T07:40:39;12.80;99.90
20167;DHT22;10243;49.118;8.508;2022-11-15T07:43:59;12.80;99.90
20167;DHT22;10243;49.118;8.508;2022-11-15T07:47:20;12.90;99.90
20167;DHT22;10243;49.118;8.508;2022-11-15T07:50:41;12.90;99.90
20167;DHT22;10243;49.118;8.508;2022-11-15T07:54:03;13.10;99.90
20167;DHT22;10243;49.118;8.508;2022-11-15T07:57:24;13.10;99.90
20167;DHT22;10243;49.118;8.508;2022-11-15T08:00:44;13.10;99.90
20167;DHT22;10243;49.118;8.508;2022-11-15T08:04:05;13.20;99.90
20167;DHT22;10243;49.118;8.508;2022-11-15T08:07:28;13.10;99.90
20167;DHT22;10243;49.118;8.508;2022-11-15T08:10:50;13.10;99.90
20167;DHT22;10243;49.118;8.508;2022-11-15T08:14:11;13.20;99.90
20167;DHT22;10243;49.118;8.508;2022-11-15T08:17:31;13.20;99.90
20167;DHT22;10243;49.118;8.508;2022-11-15T08:20:53;13.30;99.90
20167;DHT22;10243;49.118;8.508;2022-11-15T08:24:13;13.40;99.90
20167;DHT22;10243;49.118;8.508;2022-11-15T08:27:35;13.50;99.90
20167;DHT22;10243;49.118;8.508;2022-11-15T08:30:55;13.50;99.90
20167;DHT22;10243;49.118;8.508;2022-11-15T08:34:16;13.60;99.90
20167;DHT22;10243;49.118;8.508;2022-11-15T08:37:37;13.70;99.90
20167;DHT22;10243;49.118;8.508;2022-11-15T08:41:01;13.70;99.90
20167;DHT22;10243;49.118;8.508;2022-11-15T08:44:23;13.60;99.90
20167;DHT22;10243;49.118;8.508;2022-11-15T08:47:43;13.60;99.90
20167;DHT22;10243;49.118;8.508;2022-11-15T08:51:04;13.80;99.90
20167;DHT22;10243;49.118;8.508;2022-11-15T08:54:25;13.90;99.90
20167;DHT22;10243;49.118;8.508;2022-11-15T08:57:45;14.00;99.90
20167;DHT22;10243;49.118;8.508;2022-11-15T09:01:15;14.20;99.90
20167;DHT22;10243;49.118;8.508;2022-11-15T09:04:36;14.30;99.90
20167;DHT22;10243;49.118;8.508;2022-11-15T09:07:57;14.30;99.90
20167;DHT22;10243;49.118;8.508;2022-11-15T09:11:17;14.40;99.90
20167;DHT22;10243;49.118;8.508;2022-11-15T09:14:40;14.50;99.90
20167;DHT22;10243;49.118;8.508;2022-11-15T09:18:02;14.60;99.90
20167;DHT22;10243;49.118;8.508;2022-11-15T09:21:22;14.60;99.90
20167;DHT22;10243;49.118;8.508;2022-11-15T09:24:44;14.60;99.90
20167;DHT22;10243;49.118;8.508;2022-11-15T09:28:06;14.70;99.90
20167;DHT22;10243;49.118;8.508;2022-11-15T09:31:26;14.70;99.90
20167;DHT22;10243;49.118;8.508;2022-11-15T09:34:50;14.80;99.90
20167;DHT22;10243;49.118;8.508;2022-11-15T09:38:10;14.80;99.90
20167;DHT22;10243;49.118;8.508;2022-11-15T09:41:58;14.80;99.90
20167;DHT22;10243;49.118;8.508;2022-11-15T09:45:23;14.80;99.90
20167;DHT22;10243;49.118;8.508;2022-11-15T09:48:50;14.90;99.90
20167;DHT22;10243;49.118;8.508;2022-11-15T09:52:08;14.90;99.90
20167;DHT22;10243;49.118;8.508;2022-11-15T09:55:13;14.80;99.90
20167;DHT22;10243;49.118;8.508;2022-11-15T09:58:26;14.80;99.90
20167;DHT22;10243;49.118;8.508;2022-11-15T10:01:39;14.80;99.90
20167;DHT22;10243;49.118;8.508;2022-11-15T10:04:43;14.90;99.90
20167;DHT22;10243;49.118;8.508;2022-11-15T10:07:54;14.90;99.90
20167;DHT22;10243;49.118;8.508;2022-11-15T10:11:00;15.00;99.90
20167;DHT22;10243;49.118;8.508;2022-11-15T10:14:08;14.90;99.90
20167;DHT22;10243;49.118;8.508;2022-11-15T10:17:25;14.90;99.90
20167;DHT22;10243;49.118;8.508;2022-11-15T10:20:37;14.90;99.90
20167;DHT22;10243;49.118;8.508;2022-11-15T10:23:43;15.00;99.90
20167;DHT22;10243;49.118;8.508;2022-11-15T10:26:46;15.00;99.90
20167;DHT22;10243;49.118;8.508;2022-11-15T10:29:49;15.00;99.90
20167;DHT22;10243;49.118;8.508;2022-11-15T10:32:51;15.00;99.90
20167;DHT22;10243;49.118;8.508;2022-11-15T10:36:14;15.00;99.90
20167;DHT22;10243;49.118;8.508;2022-11-15T10:39:18;15.00;99.90
20167;DHT22;10243;49.118;8.508;2022-11-15T10:42:26;15.10;99.90
20167;DHT22;10243;49.118;8.508;2022-11-15T10:45:30;15.20;99.90
20167;DHT22;10243;49.118;8.508;2022-11-15T10:48:32;15.20;99.90
20167;DHT22;10243;49.118;8.508;2022-11-15T10:51:42;15.10;99.90
20167;DHT22;10243;49.118;8.508;2022-11-15T10:54:47;15.10;99.90
20167;DHT22;10243;49.118;8.508;2022-11-15T10:57:51;15.20;99.90
20167;DHT22;10243;49.118;8.508;2022-11-15T11:00:53;15.20;99.90
20167;DHT22;10243;49.118;8.508;2022-11-15T11:04:00;15.20;99.90
20167;DHT22;10243;49.118;8.508;2022-11-15T11:07:20;15.30;99.90
20167;DHT22;10243;49.118;8.508;2022-11-15T11:10:24;15.40;99.90
20167;DHT22;10243;49.118;8.508;2022-11-15T11:13:27;15.60;99.90
20167;DHT22;10243;49.118;8.508;2022-11-15T11:16:46;15.60;99.90
20167;DHT22;10243;49.118;8.508;2022-11-15T11:20:00;15.60;99.90
20167;DHT22;10243;49.118;8.508;2022-11-15T11:23:20;15.70;99.90
20167;DHT22;10243;49.118;8.508;2022-11-15T11:26:40;15.70;99.90
20167;DHT22;10243;49.118;8.508;2022-11-15T11:29:53;15.80;99.90
20167;DHT22;10243;49.118;8.508;2022-11-15T11:33:07;15.80;99.90
20167;DHT22;10243;49.118;8.508;2022-11-15T11:36:19;15.80;99.90
20167;DHT22;10243;49.118;8.508;2022-11-15T11:39:31;15.80;99.90
20167;DHT22;10243;49.118;8.508;2022-11-15T11:42:43;15.90;99.90
20167;DHT22;10243;49.118;8.508;2022-11-15T11:46:10;15.90;99.90
20167;DHT22;10243;49.118;8.508;2022-11-15T11:49:18;15.90;99.90
20167;DHT22;10243;49.118;8.508;2022-11-15T11:52:24;15.90;99.90
20167;DHT22;10243;49.118;8.508;2022-11-15T11:55:31;15.80;99.90
20167;DHT22;10243;49.118;8.508;2022-11-15T11:58:40;15.80;99.90
20167;DHT22;10243;49.118;8.508;2022-11-15T12:01:44;15.80;99.90
20167;DHT22;10243;49.118;8.508;2022-11-15T12:04:50;15.70;99.90
20167;DHT22;10243;49.118;8.508;2022-11-15T12:07:56;15.70;99.90
20167;DHT22;10243;49.118;8.508;2022-11-15T12:11:07;15.80;99.90
20167;DHT22;10243;49.118;8.508;2022-11-15T12:14:35;15.80;99.90
20167;DHT22;10243;49.118;8.508;2022-11-15T12:17:40;15.80;99.90
20167;DHT22;10243;49.118;8.508;2022-11-15T12:20:51;15.80;99.90
20167;DHT22;10243;49.118;8.508;2022-11-15T12:23:55;15.80;99.90
20167;DHT22;10243;49.118;8.508;2022-11-15T12:27:05;15.90;99.90
20167;DHT22;10243;49.118;8.508;2022-11-15T12:30:12;15.80;99.90
20167;DHT22;10243;49.118;8.508;2022-11-15T12:33:30;16.00;99.90
20167;DHT22;10243;49.118;8.508;2022-11-15T12:36:36;16.00;99.90
20167;DHT22;10243;49.118;8.508;2022-11-15T12:40:20;16.00;99.90
20167;DHT22;10243;49.118;8.508;2022-11-15T12:43:40;16.10;99.90
20167;DHT22;10243;49.118;8.508;2022-11-15T12:47:04;16.10;99.90
20167;DHT22;10243;49.118;8.508;2022-11-15T12:50:16;16.10;99.90
20167;DHT22;10243;49.118;8.508;2022-11-15T12:53:28;16.30;99.90
20167;DHT22;10243;49.118;8.508;2022-11-15T12:56:32;16.30;99.90
20167;DHT22;10243;49.118;8.508;2022-11-15T12:59:48;16.30;99.90
20167;DHT22;10243;49.118;8.508;2022-11-15T13:03:27;16.30;99.90
20167;DHT22;10243;49.118;8.508;2022-11-15T13:06:39;16.40;99.90
20167;DHT22;10243;49.118;8.508;2022-11-15T13:09:52;16.40;99.90
20167;DHT22;10243;49.118;8.508;2022-11-15T13:12:57;16.40;99.90
20167;DHT22;10243;49.118;8.508;2022-11-15T13:15:59;16.40;99.90
20167;DHT22;10243;49.118;8.508;2022-11-15T13:19:04;16.20;99.90
20167;DHT22;10243;49.118;8.508;2022-11-15T13:22:09;16.10;99.90
20167;DHT22;10243;49.118;8.508;2022-11-15T13:25:51;16.00;99.90
20167;DHT22;10243;49.118;8.508;2022-11-15T13:28:55;16.00;99.90
20167;DHT22;10243;49.118;8.508;2022-11-15T13:31:57;15.90;99.90
20167;DHT22;10243;49.118;8.508;2022-11-15T13:35:00;16.00;99.90
20167;DHT22;10243;49.118;8.508;2022-11-15T13:38:04;16.10;99.90
20167;DHT22;10243;49.118;8.508;2022-11-15T13:41:19;16.20;99.90
20167;DHT22;10243;49.118;8.508;2022-11-15T13:44:23;16.30;99.90
20167;DHT22;10243;49.118;8.508;2022-11-15T13:47:26;16.30;99.90
20167;DHT22;10243;49.118;8.508;2022-11-15T13:50:33;16.20;99.90
20167;DHT22;10243;49.118;8.508;2022-11-15T13:53:39;16.30;99.90
20167;DHT22;10243;49.118;8.508;2022-11-15T13:56:44;16.20;99.90
20167;DHT22;10243;49.118;8.508;2022-11-15T13:59:49;16.20;99.90
20167;DHT22;10243;49.118;8.508;2022-11-15T14:02:53;16.20;99.90
20167;DHT22;10243;49.118;8.508;2022-11-15T14:06:07;16.20;99.90
20167;DHT22;10243;49.118;8.508;2022-11-15T14:09:39;16.20;99.90
20167;DHT22;10243;49.118;8.508;2022-11-15T14:12:50;16.20;99.90
20167;DHT22;10243;49.118;8.508;2022-11-15T14:15:52;16.10;99.90
20167;DHT22;10243;49.118;8.508;2022-11-15T14:18:54;16.20;99.90
20167;DHT22;10243;49.118;8.508;2022-11-15T14:22:15;16.30;99.90
20167;DHT22;10243;49.118;8.508;2022-11-15T14:25:19;16.30;99.90
20167;DHT22;10243;49.118;8.508;2022-11-15T14:28:32;16.30;99.90
20167;DHT22;10243;49.118;8.508;2022-11-15T14:31:37;16.20;99.90
20167;DHT22;10243;49.118;8.508;2022-11-15T14:34:41;16.20;99.90
20167;DHT22;10243;49.118;8.508;2022-11-15T14:37:44;16.20;99.90
20167;DHT22;10243;49.118;8.508;2022-11-15T14:40:46;16.20;99.90
20167;DHT22;10243;49.118;8.508;2022-11-15T14:43:49;16.20;99.90
20167;DHT22;10243;49.118;8.508;2022-11-15T14:46:51;16.10;99.90
20167;DHT22;10243;49.118;8.508;2022-11-15T14:49:53;16.10;99.90
20167;DHT22;10243;49.118;8.508;2022-11-15T14:52:56;16.10;99.90
20167;DHT22;10243;49.118;8.508;2022-11-15T14:55:58;16.10;99.90
20167;DHT22;10243;49.118;8.508;2022-11-15T14:59:00;16.10;99.90
20167;DHT22;10243;49.118;8.508;2022-11-15T15:02:02;16.00;99.90
20167;DHT22;10243;49.118;8.508;2022-11-15T15:05:13;16.00;99.90
20167;DHT22;10243;49.118;8.508;2022-11-15T15:08:17;16.00;99.90
20167;DHT22;10243;49.118;8.508;2022-11-15T15:11:21;16.00;99.90
20167;DHT22;10243;49.118;8.508;2022-11-15T15:14:24;16.00;99.90
20167;DHT22;10243;49.118;8.508;2022-11-15T15:17:25;16.00;99.90
20167;DHT22;10243;49.118;8.508;2022-11-15T15:20:27;15.90;99.90
20167;DHT22;10243;49.118;8.508;2022-11-15T15:23:31;15.90;99.90
20167;DHT22;10243;49.118;8.508;2022-11-15T15:26:33;15.80;99.90
20167;DHT22;10243;49.118;8.508;2022-11-15T15:29:36;15.70;99.90
20167;DHT22;10243;49.118;8.508;2022-11-15T15:32:38;15.60;99.90
20167;DHT22;10243;49.118;8.508;2022-11-15T15:35:41;15.60;99.90
20167;DHT22;10243;49.118;8.508;2022-11-15T15:38:45;15.60;99.90
20167;DHT22;10243;49.118;8.508;2022-11-15T15:41:47;15.60;99.90
20167;DHT22;10243;49.118;8.508;2022-11-15T15:44:49;15.60;99.90
20167;DHT22;10243;49.118;8.508;2022-11-15T15:47:52;15.50;99.90
20167;DHT22;10243;49.118;8.508;2022-11-15T15:50:53;15.50;99.90
20167;DHT22;10243;49.118;8.508;2022-11-15T15:53:57;15.50;99.90
20167;DHT22;10243;49.118;8.508;2022-11-15T15:56:59;15.50;99.90
20167;DHT22;10243;49.118;8.508;2022-11-15T16:00:01;15.50;99.90
20167;DHT22;10243;49.118;8.508;2022-11-15T16:03:12;15.50;99.90
20167;DHT22;10243;49.118;8.508;2022-11-15T16:06:34;15.50;99.90
20167;DHT22;10243;49.118;8.508;2022-11-15T16:09:38;15.50;99.90
20167;DHT22;10243;49.118;8.508;2022-11-15T16:12:57;15.50;99.90
20167;DHT22;10243;49.118;8.508;2022-11-15T16:16:00;15.50;99.90
20167;DHT22;10243;49.118;8.508;2022-11-15T16:19:02;15.50;99.90
20167;DHT22;10243;49.118;8.508;2022-11-15T16:22:04;15.50;99.90
20167;DHT22;10243;49.118;8.508;2022-11-15T16:25:08;15.40;99.90
20167;DHT22;10243;49.118;8.508;2022-11-15T16:28:20;15.40;99.90
20167;DHT22;10243;49.118;8.508;2022-11-15T16:31:22;15.40;99.90
20167;DHT22;10243;49.118;8.508;2022-11-15T16:34:24;15.40;99.90
20167;DHT22;10243;49.118;8.508;2022-11-15T16:37:26;15.30;99.90
20167;DHT22;10243;49.118;8.508;2022-11-15T16:40:31;15.30;99.90
20167;DHT22;10243;49.118;8.508;2022-11-15T16:43:33;15.30;99.90
20167;DHT22;10243;49.118;8.508;2022-11-15T16:46:35;15.30;99.90
20167;DHT22;10243;49.118;8.508;2022-11-15T16:49:42;15.40;99.90
20167;DHT22;10243;49.118;8.508;2022-11-15T16:52:44;15.40;99.90
20167;DHT22;10243;49.118;8.508;2022-11-15T16:55:48;15.40;99.90
20167;DHT22;10243;49.118;8.508;2022-11-15T16:58:50;15.50;99.90
20167;DHT22;10243;49.118;8.508;2022-11-15T17:01:52;15.60;99.90
20167;DHT22;10243;49.118;8.508;2022-11-15T17:04:54;15.60;99.90
20167;DHT22;10243;49.118;8.508;2022-11-15T17:07:56;15.60;99.90
20167;DHT22;10243;49.118;8.508;2022-11-15T17:10:59;15.60;99.90
20167;DHT22;10243;49.118;8.508;2022-11-15T17:14:01;15.60;99.90
20167;DHT22;10243;49.118;8.508;2022-11-15T17:17:03;15.60;99.90
20167;DHT22;10243;49.118;8.508;2022-11-15T17:20:06;15.60;99.90
20167;DHT22;10243;49.118;8.508;2022-11-15T17:23:12;15.60;99.90
20167;DHT22;10243;49.118;8.508;2022-11-15T17:26:16;15.60;99.90
20167;DHT22;10243;49.118;8.508;2022-11-15T17:29:18;15.60;99.90
20167;DHT22;10243;49.118;8.508;2022-11-15T17:32:19;15.70;99.90
20167;DHT22;10243;49.118;8.508;2022-11-15T17:35:21;15.60;99.90
20167;DHT22;10243;49.118;8.508;2022-11-15T17:38:23;15.70;99.90
20167;DHT22;10243;49.118;8.508;2022-11-15T17:41:27;15.80;99.90
20167;DHT22;10243;49.118;8.508;2022-11-15T17:44:29;15.80;99.90
20167;DHT22;10243;49.118;8.508;2022-11-15T17:47:31;15.80;99.90
20167;DHT22;10243;49.118;8.508;2022-11-15T17:50:33;15.80;99.90
20167;DHT22;10243;49.118;8.508;2022-11-15T17:53:37;15.70;99.90
20167;DHT22;10243;49.118;8.508;2022-11-15T17:56:40;15.80;99.90
20167;DHT22;10243;49.118;8.508;2022-11-15T17:59:42;15.70;99.90
20167;DHT22;10243;49.118;8.508;2022-11-15T18:02:44;15.70;99.90
20167;DHT22;10243;49.118;8.508;2022-11-15T18:05:45;15.70;99.90
20167;DHT22;10243;49.118;8.508;2022-11-15T18:08:48;15.70;99.90
20167;DHT22;10243;49.118;8.508;2022-11-15T18:11:52;15.60;99.90
20167;DHT22;10243;49.118;8.508;2022-11-15T18:14:54;15.70;99.90
20167;DHT22;10243;49.118;8.508;2022-11-15T18:17:56;15.60;99.90
20167;DHT22;10243;49.118;8.508;2022-11-15T18:21:02;15.60;99.90
20167;DHT22;10243;49.118;8.508;2022-11-15T18:24:04;15.40;99.90
20167;DHT22;10243;49.118;8.508;2022-11-15T18:27:08;15.50;99.90
20167;DHT22;10243;49.118;8.508;2022-11-15T18:30:10;15.40;99.90
20167;DHT22;10243;49.118;8.508;2022-11-15T18:33:12;15.50;99.90
20167;DHT22;10243;49.118;8.508;2022-11-15T18:36:17;15.50;99.90
20167;DHT22;10243;49.118;8.508;2022-11-15T18:39:19;15.30;99.90
20167;DHT22;10243;49.118;8.508;2022-11-15T18:42:22;15.30;99.90
20167;DHT22;10243;49.118;8.508;2022-11-15T18:45:24;15.50;99.90
20167;DHT22;10243;49.118;8.508;2022-11-15T18:48:28;15.50;99.90
20167;DHT22;10243;49.118;8.508;2022-11-15T18:51:30;15.60;99.90
20167;DHT22;10243;49.118;8.508;2022-11-15T18:54:32;15.50;99.90
20167;DHT22;10243;49.118;8.508;2022-11-15T18:57:35;15.50;99.90
20167;DHT22;10243;49.118;8.508;2022-11-15T19:00:37;15.50;99.90
20167;DHT22;10243;49.118;8.508;2022-11-15T19:03:41;15.50;99.90
20167;DHT22;10243;49.118;8.508;2022-11-15T19:06:45;15.40;99.90
20167;DHT22;10243;49.118;8.508;2022-11-15T19:09:47;15.40;99.90
20167;DHT22;10243;49.118;8.508;2022-11-15T19:12:50;15.40;99.90
20167;DHT22;10243;49.118;8.508;2022-11-15T19:15:56;15.20;99.90
20167;DHT22;10243;49.118;8.508;2022-11-15T19:19:00;15.10;99.90
20167;DHT22;10243;49.118;8.508;2022-11-15T19:22:02;15.00;99.90
20167;DHT22;10243;49.118;8.508;2022-11-15T19:25:04;15.10;99.90
20167;DHT22;10243;49.118;8.508;2022-11-15T19:28:09;15.00;99.90
20167;DHT22;10243;49.118;8.508;2022-11-15T19:31:13;15.00;99.90
20167;DHT22;10243;49.118;8.508;2022-11-15T19:34:15;15.00;99.90
20167;DHT22;10243;49.118;8.508;2022-11-15T19:37:17;15.10;99.90
20167;DHT22;10243;49.118;8.508;2022-11-15T19:40:19;15.10;99.90
20167;DHT22;10243;49.118;8.508;2022-11-15T19:43:22;15.10;99.90
20167;DHT22;10243;49.118;8.508;2022-11-15T19:46:25;15.10;99.90
20167;DHT22;10243;49.118;8.508;2022-11-15T19:49:27;15.20;99.90
20167;DHT22;10243;49.118;8.508;2022-11-15T19:52:29;15.10;99.90
20167;DHT22;10243;49.118;8.508;2022-11-15T19:55:31;15.10;99.90
20167;DHT22;10243;49.118;8.508;2022-11-15T19:58:34;15.10;99.90
20167;DHT22;10243;49.118;8.508;2022-11-15T20:01:36;15.10;99.90
20167;DHT22;10243;49.118;8.508;2022-11-15T20:04:38;15.10;99.90
20167;DHT22;10243;49.118;8.508;2022-11-15T20:07:40;15.10;99.90
20167;DHT22;10243;49.118;8.508;2022-11-15T20:10:42;15.00;99.90
20167;DHT22;10243;49.118;8.508;2022-11-15T20:13:46;15.00;99.90
20167;DHT22;10243;49.118;8.508;2022-11-15T20:16:48;15.00;99.90
20167;DHT22;10243;49.118;8.508;2022-11-15T20:19:50;15.00;99.90
20167;DHT22;10243;49.118;8.508;2022-11-15T20:22:52;14.90;99.90
20167;DHT22;10243;49.118;8.508;2022-11-15T20:25:54;14.90;99.90
20167;DHT22;10243;49.118;8.508;2022-11-15T20:28:57;14.90;99.90
20167;DHT22;10243;49.118;8.508;2022-11-15T20:32:02;14.90;99.90